Time;durP1;ratioP1;P1;durP2;ratioP2;P2;SDS_P1;SDS_P2;PMS_P1;PMS_P2;Temp;Humidity;BMP_temperature;BMP_pressure;BME280_temperature;BME280_humidity;BME280_pressure;Samples;Min_cycle;Max_cycle;Signal;HPM_P1;HPM_P2
2022/08/08 00:00:10;;;;;;;2.40;2.20;;;26.20;54.80;;;;;;4946514;28;20445;-74
2022/08/08 00:03:20;;;;;;;2.50;2.30;;;26.10;54.80;;;;;;4973827;28;20804;-74
2022/08/08 00:06:07;;;;;;;2.67;2.47;;;26.10;54.90;;;;;;4947060;28;20785;-74
2022/08/08 00:08:50;;;;;;;2.43;2.23;;;26.10;54.90;;;;;;4974538;28;20485;-74
2022/08/08 00:11:20;;;;;;;3.00;2.70;;;26.10;55.00;;;;;;4974040;28;21057;-73
2022/08/08 00:14:03;;;;;;;2.70;2.50;;;26.00;54.90;;;;;;4958021;28;20503;-74
2022/08/08 00:17:06;;;;;;;2.43;2.23;;;26.00;54.90;;;;;;4957240;28;20506;-74
2022/08/08 00:19:53;;;;;;;3.20;2.10;;;26.00;54.90;;;;;;4965718;28;20511;-74
2022/08/08 00:22:29;;;;;;;2.60;2.40;;;26.00;55.00;;;;;;4975178;28;20524;-74
2022/08/08 00:25:06;;;;;;;2.60;2.33;;;26.00;55.00;;;;;;4958419;28;20444;-74
2022/08/08 00:27:36;;;;;;;2.73;2.20;;;26.00;55.10;;;;;;4942296;28;20448;-74
2022/08/08 00:30:08;;;;;;;2.70;2.50;;;25.90;55.10;;;;;;4973978;28;20443;-74
2022/08/08 00:33:10;;;;;;;2.40;2.20;;;25.90;55.10;;;;;;4973612;28;20477;-74
2022/08/08 00:36:01;;;;;;;3.50;2.87;;;25.90;55.10;;;;;;4919046;29;20532;-74
2022/08/08 00:38:58;;;;;;;3.17;2.67;;;25.90;55.20;;;;;;4955142;28;20577;-74
2022/08/08 00:41:36;;;;;;;2.80;2.57;;;25.90;55.20;;;;;;4965655;28;20532;-74
2022/08/08 00:44:34;;;;;;;2.60;2.40;;;25.90;55.20;;;;;;4954996;29;20411;-74
2022/08/08 00:47:03;;;;;;;2.80;2.60;;;25.80;55.20;;;;;;4938853;29;20526;-74
2022/08/08 00:49:38;;;;;;;3.60;2.27;;;25.80;55.20;;;;;;4938900;29;20775;-74
2022/08/08 00:52:10;;;;;;;2.17;2.00;;;25.80;55.20;;;;;;4971075;28;20437;-74
2022/08/08 00:54:41;;;;;;;2.23;2.03;;;25.80;55.30;;;;;;4939153;29;20845;-74
2022/08/08 00:57:24;;;;;;;2.40;2.13;;;25.70;55.20;;;;;;4958571;28;20409;-74
2022/08/08 01:00:12;;;;;;;3.10;2.53;;;25.80;55.30;;;;;;4958230;28;20978;-75
2022/08/08 01:03:16;;;;;;;3.13;2.57;;;25.70;55.30;;;;;;4973075;28;20509;-75
2022/08/08 01:06:14;;;;;;;2.40;2.20;;;25.70;55.40;;;;;;4941821;28;20446;-75
2022/08/08 01:09:15;;;;;;;2.70;2.50;;;25.70;55.40;;;;;;4973704;28;20401;-75
2022/08/08 01:12:22;;;;;;;2.30;2.10;;;25.70;55.40;;;;;;4982655;28;20461;-75
2022/08/08 01:15:35;;;;;;;3.07;2.80;;;25.60;55.40;;;;;;4972892;28;20457;-75
2022/08/08 01:18:35;;;;;;;5.90;3.10;;;25.60;55.50;;;;;;4973159;28;20497;-75
2022/08/08 01:21:07;;;;;;;3.10;2.80;;;25.60;55.50;;;;;;4973220;28;20434;-75
2022/08/08 01:24:03;;;;;;;2.47;2.10;;;25.60;55.60;;;;;;4973912;28;20473;-75
2022/08/08 01:26:33;;;;;;;2.50;2.30;;;25.60;55.70;;;;;;4956972;28;20437;-75
2022/08/08 01:29:26;;;;;;;3.13;2.83;;;25.50;55.60;;;;;;4973007;28;20523;-76
2022/08/08 01:32:01;;;;;;;3.00;2.30;;;25.50;55.70;;;;;;4959655;28;20454;-76
2022/08/08 01:34:35;;;;;;;2.60;2.40;;;25.50;55.70;;;;;;4957421;28;20804;-75
2022/08/08 01:37:07;;;;;;;3.07;2.60;;;25.40;56.20;;;;;;4959548;28;20866;-78
2022/08/08 01:40:09;;;;;;;4.00;2.57;;;25.40;55.70;;;;;;4976620;28;20426;-77
2022/08/08 01:42:59;;;;;;;2.33;2.10;;;25.40;55.70;;;;;;4945817;28;20446;-78
2022/08/08 01:45:56;;;;;;;4.63;2.53;;;25.40;55.80;;;;;;4948740;29;20482;-77
2022/08/08 01:48:52;;;;;;;2.90;2.70;;;25.40;55.80;;;;;;4975859;28;20415;-78
2022/08/08 01:51:40;;;;;;;2.60;2.40;;;25.40;55.90;;;;;;4976165;28;20471;-78
2022/08/08 01:54:47;;;;;;;2.77;2.57;;;25.40;55.90;;;;;;4960820;28;20422;-77
2022/08/08 01:58:00;;;;;;;2.90;2.60;;;25.30;55.90;;;;;;4957641;28;20490;-77
2022/08/08 02:01:06;;;;;;;3.00;2.80;;;25.30;56.00;;;;;;4959687;28;20443;-78
2022/08/08 02:03:54;;;;;;;2.37;2.20;;;25.30;56.00;;;;;;4958228;28;20513;-78
2022/08/08 02:06:32;;;;;;;2.93;2.47;;;25.30;56.00;;;;;;4965168;28;20433;-78
2022/08/08 02:09:17;;;;;;;3.10;2.80;;;25.20;56.00;;;;;;4953485;29;20490;-78
2022/08/08 02:11:46;;;;;;;2.80;2.50;;;25.20;56.00;;;;;;4966952;28;20476;-78
2022/08/08 02:14:18;;;;;;;2.83;2.63;;;25.20;56.10;;;;;;4962430;28;20427;-77
2022/08/08 02:17:09;;;;;;;2.40;2.20;;;25.20;56.10;;;;;;4958850;28;20472;-78
2022/08/08 02:19:42;;;;;;;3.13;2.93;;;25.20;56.10;;;;;;4975007;28;20430;-78
2022/08/08 02:22:33;;;;;;;2.80;2.57;;;25.20;56.10;;;;;;4959713;28;21058;-77
2022/08/08 02:25:09;;;;;;;2.73;2.50;;;25.20;56.20;;;;;;4956515;28;20585;-75
2022/08/08 02:27:57;;;;;;;3.20;2.90;;;25.10;56.10;;;;;;4956194;28;20863;-75
2022/08/08 02:30:49;;;;;;;2.60;2.40;;;25.10;56.20;;;;;;4972076;28;20786;-76
2022/08/08 02:33:36;;;;;;;2.70;2.50;;;25.10;56.20;;;;;;4933511;28;20914;-76
2022/08/08 02:36:23;;;;;;;2.70;2.50;;;25.10;56.30;;;;;;4939773;28;20466;-76
2022/08/08 02:39:07;;;;;;;3.07;2.70;;;25.00;56.30;;;;;;5017481;23;20581;-68
2022/08/08 02:41:57;;;;;;;3.00;2.80;;;25.00;56.30;;;;;;4954900;28;20446;-67
2022/08/08 02:44:56;;;;;;;2.73;2.53;;;25.00;56.30;;;;;;4938337;29;20428;-68
2022/08/08 02:47:59;;;;;;;2.50;2.30;;;25.00;56.40;;;;;;4937953;29;20776;-67
2022/08/08 02:51:11;;;;;;;3.00;2.67;;;25.00;56.40;;;;;;4938572;29;20415;-67
2022/08/08 02:54:14;;;;;;;2.60;2.40;;;24.90;56.40;;;;;;4953696;29;20768;-67
2022/08/08 02:56:51;;;;;;;3.07;2.33;;;24.90;57.00;;;;;;4937962;29;20617;-67
2022/08/08 02:59:27;;;;;;;2.80;2.60;;;24.90;56.50;;;;;;4921970;29;20407;-67
2022/08/08 03:02:20;;;;;;;3.07;2.80;;;24.90;56.50;;;;;;4953476;28;20427;-68
2022/08/08 03:05:27;;;;;;;2.90;2.60;;;24.90;56.50;;;;;;4938128;29;20909;-67
2022/08/08 03:08:33;;;;;;;3.33;3.03;;;24.80;56.50;;;;;;4953498;29;20944;-67
2022/08/08 03:11:04;;;;;;;3.30;3.00;;;24.80;56.50;;;;;;4953511;28;20887;-67
2022/08/08 03:13:58;;;;;;;2.87;2.63;;;24.80;56.60;;;;;;4937124;29;20463;-68
2022/08/08 03:16:45;;;;;;;2.90;2.60;;;24.80;56.60;;;;;;4937404;29;20538;-67
2022/08/08 03:19:23;;;;;;;3.17;2.87;;;24.80;56.60;;;;;;4937644;29;20893;-68
2022/08/08 03:21:48;;;;;;;3.30;2.83;;;24.70;56.60;;;;;;4952631;28;20447;-67
2022/08/08 03:24:23;;;;;;;5.13;2.60;;;24.70;56.60;;;;;;4934412;29;20861;-67
2022/08/08 03:27:19;;;;;;;2.83;2.57;;;24.70;56.70;;;;;;4952773;29;20235;-68
2022/08/08 03:29:58;;;;;;;3.10;2.80;;;24.70;56.70;;;;;;4954186;28;20399;-68
2022/08/08 03:35:18;;;;;;;3.20;2.90;;;24.70;56.70;;;;;;4953773;28;20531;-67
2022/08/08 03:37:48;;;;;;;2.97;2.77;;;24.60;56.70;;;;;;4937979;29;20412;-67
2022/08/08 03:40:19;;;;;;;3.40;2.70;;;24.60;56.70;;;;;;4922130;29;20978;-68
2022/08/08 03:42:47;;;;;;;2.90;2.70;;;24.60;56.70;;;;;;4945562;29;20466;-67
2022/08/08 03:45:23;;;;;;;3.07;2.77;;;24.60;56.80;;;;;;4957018;29;20441;-67
2022/08/08 03:48:06;;;;;;;4.60;3.30;;;24.60;56.80;;;;;;4925086;29;20435;-67
2022/08/08 03:50:39;;;;;;;3.37;2.87;;;24.60;56.80;;;;;;4922131;29;20582;-67
2022/08/08 03:53:11;;;;;;;3.27;2.97;;;24.50;56.80;;;;;;4953594;29;20466;-68
2022/08/08 03:55:51;;;;;;;3.23;2.83;;;24.50;56.80;;;;;;4940685;29;20517;-67
2022/08/08 03:58:22;;;;;;;4.33;2.63;;;24.50;56.90;;;;;;4940909;29;20450;-68
2022/08/08 04:01:16;;;;;;;3.50;3.20;;;24.50;57.40;;;;;;4932240;29;20526;-67
2022/08/08 04:03:47;;;;;;;3.20;2.90;;;24.50;56.90;;;;;;4953420;29;20489;-67
2022/08/08 04:06:16;;;;;;;2.97;2.63;;;24.50;56.90;;;;;;4949815;29;20459;-67
2022/08/08 04:08:42;;;;;;;3.03;2.77;;;24.50;57.00;;;;;;4956626;29;20417;-67
2022/08/08 04:11:15;;;;;;;3.13;2.83;;;24.40;57.00;;;;;;4940588;29;20465;-67
2022/08/08 04:13:43;;;;;;;3.77;3.37;;;24.40;57.00;;;;;;4957760;28;20403;-67
2022/08/08 04:16:10;;;;;;;2.83;2.63;;;24.40;57.00;;;;;;4954287;29;20447;-67
2022/08/08 04:18:41;;;;;;;3.13;2.93;;;24.40;57.10;;;;;;4947829;29;20427;-68
2022/08/08 04:21:07;;;;;;;3.40;3.10;;;24.40;57.10;;;;;;4921510;29;20444;-67
2022/08/08 04:23:33;;;;;;;2.97;2.60;;;24.40;57.10;;;;;;4937184;29;20423;-67
2022/08/08 04:26:02;;;;;;;3.23;2.93;;;24.30;57.10;;;;;;4927366;29;20431;-67
2022/08/08 04:28:35;;;;;;;3.20;3.00;;;24.30;57.10;;;;;;4956421;29;20439;-67
2022/08/08 04:31:08;;;;;;;3.10;2.60;;;24.30;57.10;;;;;;4956385;28;20474;-67
2022/08/08 04:33:36;;;;;;;4.40;3.00;;;24.30;57.20;;;;;;4956217;29;20427;-67
2022/08/08 04:36:02;;;;;;;2.70;2.50;;;24.30;57.10;;;;;;4972008;28;20467;-68
2022/08/08 04:38:28;;;;;;;2.90;2.70;;;24.20;57.10;;;;;;4954724;28;20443;-67
2022/08/08 04:41:01;;;;;;;3.13;2.83;;;24.20;57.10;;;;;;4936723;29;20424;-67
2022/08/08 04:43:27;;;;;;;2.63;2.43;;;24.20;57.20;;;;;;4935552;29;20412;-68
2022/08/08 04:46:00;;;;;;;3.17;2.90;;;24.20;57.20;;;;;;4936318;29;20432;-68
2022/08/08 04:48:25;;;;;;;4.10;3.20;;;24.20;57.20;;;;;;4936218;29;20768;-67
2022/08/08 04:50:54;;;;;;;2.97;2.67;;;24.20;57.30;;;;;;4939389;28;20408;-68
2022/08/08 04:53:25;;;;;;;3.40;3.20;;;24.20;57.30;;;;;;4953313;29;21016;-68
2022/08/08 04:55:52;;;;;;;3.20;3.00;;;24.10;57.30;;;;;;4927148;29;20459;-68
2022/08/08 04:58:21;;;;;;;3.00;2.80;;;24.10;57.30;;;;;;4962470;28;20417;-68
2022/08/08 05:00:48;;;;;;;3.40;3.07;;;24.10;57.30;;;;;;4936155;29;20518;-68
2022/08/08 05:03:15;;;;;;;3.00;2.80;;;24.10;57.40;;;;;;4920175;29;20467;-68
2022/08/08 05:05:42;;;;;;;3.17;2.87;;;24.10;57.40;;;;;;4924797;29;20532;-68
2022/08/08 05:08:10;;;;;;;3.20;2.90;;;24.10;57.40;;;;;;4936756;29;20420;-68
2022/08/08 05:10:39;;;;;;;3.43;3.13;;;24.10;57.40;;;;;;4936143;29;20428;-68
2022/08/08 05:13:05;;;;;;;3.20;2.90;;;24.10;57.50;;;;;;4946372;29;20534;-68
2022/08/08 05:15:36;;;;;;;4.20;2.80;;;24.00;57.60;;;;;;4935274;29;20468;-68
2022/08/08 05:18:04;;;;;;;3.53;3.23;;;24.00;57.50;;;;;;4935642;29;20455;-68
2022/08/08 05:20:33;;;;;;;3.27;3.00;;;24.00;57.60;;;;;;4931769;29;20506;-69
2022/08/08 05:22:59;;;;;;;3.43;3.13;;;24.00;57.60;;;;;;4970842;28;20461;-69
2022/08/08 05:25:28;;;;;;;3.67;2.90;;;23.90;57.60;;;;;;4953856;29;20481;-69
2022/08/08 05:27:56;;;;;;;3.27;2.97;;;24.00;57.70;;;;;;4954065;29;20427;-69
2022/08/08 05:30:23;;;;;;;3.70;3.30;;;24.00;57.70;;;;;;4954657;29;20756;-69
2022/08/08 05:32:52;;;;;;;3.50;3.20;;;24.00;57.80;;;;;;4970191;28;21091;-69
2022/08/08 05:35:27;;;;;;;6.40;3.57;;;23.90;57.70;;;;;;4937935;29;20448;-69
2022/08/08 05:38:03;;;;;;;2.90;2.70;;;23.90;58.30;;;;;;4953251;28;20469;-69
2022/08/08 05:40:56;;;;;;;3.30;2.97;;;23.90;57.80;;;;;;4954722;29;20446;-69
2022/08/08 05:43:24;;;;;;;3.17;2.87;;;23.90;57.80;;;;;;4954902;29;20443;-69
2022/08/08 05:46:02;;;;;;;4.23;3.00;;;23.90;57.90;;;;;;4938630;29;20570;-69
2022/08/08 05:48:32;;;;;;;4.10;3.20;;;23.80;57.80;;;;;;4954202;29;20787;-69
2022/08/08 05:51:25;;;;;;;3.57;3.10;;;23.80;57.90;;;;;;4912037;29;20460;-69
2022/08/08 05:53:54;;;;;;;3.83;3.47;;;23.80;58.00;;;;;;4953534;28;20473;-69
2022/08/08 05:56:24;;;;;;;3.97;3.00;;;23.80;57.90;;;;;;4936598;29;20513;-68
2022/08/08 05:59:18;;;;;;;4.70;3.30;;;23.80;58.00;;;;;;4938181;29;20810;-69
2022/08/08 06:01:51;;;;;;;3.30;3.10;;;23.80;58.00;;;;;;4930624;28;20538;-69
2022/08/08 06:04:23;;;;;;;3.13;2.77;;;23.80;58.00;;;;;;4954143;29;20466;-69
2022/08/08 06:06:54;;;;;;;2.97;2.77;;;23.80;58.10;;;;;;4938040;29;20419;-69
2022/08/08 06:09:28;;;;;;;3.57;3.27;;;23.70;58.10;;;;;;4954160;29;20473;-69
2022/08/08 06:12:02;;;;;;;4.93;3.37;;;23.80;58.20;;;;;;4955439;28;20481;-69
2022/08/08 06:14:29;;;;;;;3.80;3.13;;;23.70;58.20;;;;;;4961047;28;20423;-69
2022/08/08 06:16:59;;;;;;;3.83;2.80;;;23.70;58.20;;;;;;4952236;29;20423;-69
2022/08/08 06:19:51;;;;;;;3.80;3.33;;;23.70;58.20;;;;;;4934194;29;20444;-69
2022/08/08 06:22:20;;;;;;;3.50;3.20;;;23.70;58.30;;;;;;4942291;28;20462;-69
2022/08/08 06:24:51;;;;;;;3.33;3.03;;;23.70;58.40;;;;;;4938009;29;20569;-69
2022/08/08 06:27:40;;;;;;;3.47;3.17;;;23.70;58.40;;;;;;4938141;29;20586;-69
2022/08/08 06:30:11;;;;;;;3.87;3.47;;;23.70;58.50;;;;;;4953647;29;20419;-69
2022/08/08 06:32:47;;;;;;;3.53;2.90;;;23.70;58.50;;;;;;4952323;28;20465;-69
2022/08/08 06:35:16;;;;;;;3.53;3.23;;;23.70;58.50;;;;;;4937003;29;20455;-69
2022/08/08 06:37:57;;;;;;;4.63;3.67;;;23.60;58.60;;;;;;4937324;29;20434;-70
2022/08/08 06:40:33;;;;;;;4.50;3.53;;;23.60;58.70;;;;;;4937815;29;20649;-68
2022/08/08 06:43:07;;;;;;;4.30;3.90;;;23.60;58.70;;;;;;4953854;28;20462;-69
2022/08/08 06:45:53;;;;;;;4.07;3.73;;;23.60;58.60;;;;;;4953801;29;20537;-69
2022/08/08 06:48:19;;;;;;;3.37;3.07;;;23.60;58.60;;;;;;4953759;29;20499;-69
2022/08/08 06:50:46;;;;;;;5.60;3.67;;;23.60;58.70;;;;;;4937996;28;20431;-69
2022/08/08 06:53:17;;;;;;;6.93;3.63;;;23.60;58.80;;;;;;4938033;29;20507;-69
2022/08/08 06:55:49;;;;;;;4.20;3.80;;;23.60;58.70;;;;;;4953765;29;20450;-69
2022/08/08 06:58:15;;;;;;;3.37;3.07;;;23.60;58.70;;;;;;4937735;29;20447;-69
2022/08/08 07:00:48;;;;;;;3.77;3.37;;;23.60;58.70;;;;;;4927305;29;20806;-69
2022/08/08 07:03:25;;;;;;;4.00;3.33;;;23.60;58.70;;;;;;4934533;29;20428;-69
2022/08/08 07:05:53;;;;;;;3.30;3.00;;;23.60;58.60;;;;;;4934100;29;20510;-69
2022/08/08 07:08:28;;;;;;;3.97;3.53;;;23.60;58.60;;;;;;4934487;29;20400;-69
2022/08/08 07:10:58;;;;;;;3.87;3.13;;;23.60;58.50;;;;;;4942222;28;20454;-70
2022/08/08 07:13:51;;;;;;;3.50;3.20;;;23.60;58.50;;;;;;4936630;29;21027;-69
2022/08/08 07:16:26;;;;;;;6.37;3.30;;;23.60;58.50;;;;;;4933375;29;20499;-68
2022/08/08 07:18:59;;;;;;;4.20;3.60;;;23.60;58.50;;;;;;4918115;29;20424;-68
2022/08/08 07:21:48;;;;;;;3.97;3.57;;;23.60;58.50;;;;;;4918746;29;20451;-68
2022/08/08 07:24:29;;;;;;;3.77;3.47;;;23.60;58.50;;;;;;4935076;29;20396;-68
2022/08/08 07:27:02;;;;;;;4.57;3.50;;;23.60;58.50;;;;;;4936959;29;20423;-68
2022/08/08 07:29:29;;;;;;;4.03;3.60;;;23.60;58.60;;;;;;4952171;29;20429;-69
2022/08/08 07:32:02;;;;;;;4.70;3.03;;;23.60;58.60;;;;;;4952145;28;20450;-68
2022/08/08 07:34:28;;;;;;;3.80;3.50;;;23.60;58.60;;;;;;4943770;29;20483;-67
2022/08/08 07:36:57;;;;;;;7.30;3.93;;;23.70;58.70;;;;;;4935400;29;20408;-67
2022/08/08 07:39:32;;;;;;;3.83;3.43;;;23.70;58.70;;;;;;4951290;29;20975;-67
2022/08/08 07:42:00;;;;;;;3.83;3.50;;;23.70;58.70;;;;;;4923663;29;20957;-67
2022/08/08 07:44:27;;;;;;;4.00;3.60;;;23.70;58.70;;;;;;4950654;29;20438;-68
2022/08/08 07:46:56;;;;;;;4.13;3.57;;;23.70;58.70;;;;;;4919240;29;20451;-68
2022/08/08 07:50:00;;;;;;;4.53;3.80;;;23.70;58.70;;;;;;4931891;29;20447;-67
2022/08/08 07:52:27;;;;;;;4.43;3.47;;;23.70;58.70;;;;;;4941535;29;20451;-67
2022/08/08 07:54:56;;;;;;;3.53;3.23;;;23.70;58.80;;;;;;4917268;29;20559;-68
2022/08/08 07:57:37;;;;;;;6.53;4.03;;;23.70;58.80;;;;;;4926834;29;20432;-67
2022/08/08 08:00:14;;;;;;;3.73;3.43;;;23.70;58.80;;;;;;4938628;29;20418;-68
2022/08/08 08:03:06;;;;;;;3.93;3.30;;;23.70;59.30;;;;;;4952128;28;20517;-68
2022/08/08 08:05:47;;;;;;;4.70;4.20;;;23.70;58.80;;;;;;4948816;29;20995;-68
2022/08/08 08:08:29;;;;;;;4.30;3.90;;;23.70;58.80;;;;;;4933319;29;20408;-68
2022/08/08 08:10:59;;;;;;;3.67;3.30;;;23.80;58.90;;;;;;4952076;28;20446;-68
2022/08/08 08:13:37;;;;;;;5.13;3.87;;;23.80;58.80;;;;;;4952344;29;20817;-68
2022/08/08 08:16:06;;;;;;;5.13;3.20;;;23.80;58.80;;;;;;4952041;28;20549;-68
2022/08/08 08:18:41;;;;;;;4.13;3.77;;;23.80;58.80;;;;;;4955063;29;20522;-68
2022/08/08 08:21:12;;;;;;;4.07;3.63;;;23.80;58.80;;;;;;4940113;28;20446;-68
2022/08/08 08:23:39;;;;;;;4.13;3.83;;;23.80;58.70;;;;;;4938107;29;20419;-68
2022/08/08 08:26:11;;;;;;;3.77;3.47;;;23.80;59.30;;;;;;4920783;29;20985;-68
2022/08/08 08:28:37;;;;;;;5.47;3.90;;;23.90;58.80;;;;;;4936884;29;20498;-68
2022/08/08 08:31:04;;;;;;;4.20;3.70;;;23.90;58.80;;;;;;4954854;28;20979;-68
2022/08/08 08:33:33;;;;;;;5.30;4.00;;;23.90;58.80;;;;;;4939309;29;20453;-68
2022/08/08 08:36:06;;;;;;;4.50;3.90;;;23.90;58.70;;;;;;4955378;29;20500;-68
2022/08/08 08:38:35;;;;;;;4.20;3.80;;;24.00;58.80;;;;;;4930614;29;20521;-68
2022/08/08 08:41:11;;;;;;;4.00;3.50;;;24.00;58.80;;;;;;4936050;29;20450;-68
2022/08/08 08:43:43;;;;;;;4.13;3.70;;;24.00;58.90;;;;;;4937477;29;20501;-68
2022/08/08 08:46:13;;;;;;;4.47;3.90;;;24.00;58.80;;;;;;4940493;29;20458;-68
2022/08/08 08:48:43;;;;;;;5.53;3.20;;;24.00;58.70;;;;;;4956439;29;20472;-68
2022/08/08 08:51:13;;;;;;;4.17;3.87;;;24.00;58.70;;;;;;4920821;29;20962;-68
2022/08/08 08:53:49;;;;;;;4.30;3.87;;;24.00;58.70;;;;;;4939819;29;20786;-68
2022/08/08 08:56:19;;;;;;;4.50;3.57;;;24.10;58.70;;;;;;4955875;29;20459;-68
2022/08/08 08:58:49;;;;;;;3.60;3.30;;;24.10;58.70;;;;;;4955815;29;20611;-68
2022/08/08 09:01:22;;;;;;;3.57;3.23;;;24.10;58.70;;;;;;4939750;29;20458;-68
2022/08/08 09:03:54;;;;;;;4.20;3.80;;;24.10;58.60;;;;;;4940160;29;20455;-68
2022/08/08 09:06:33;;;;;;;5.00;4.10;;;24.20;58.70;;;;;;4920902;29;20463;-68
2022/08/08 09:09:03;;;;;;;4.13;3.80;;;24.10;58.60;;;;;;4920746;29;20622;-69
2022/08/08 09:11:34;;;;;;;4.13;3.73;;;24.20;58.70;;;;;;4936340;29;20447;-68
2022/08/08 09:14:02;;;;;;;4.50;3.93;;;24.20;58.60;;;;;;4941480;29;21045;-68
2022/08/08 09:16:52;;;;;;;4.40;4.00;;;24.30;58.70;;;;;;4955859;28;20435;-68
2022/08/08 09:19:19;;;;;;;4.10;3.70;;;24.30;58.70;;;;;;4939764;29;20443;-68
2022/08/08 09:21:50;;;;;;;4.30;3.90;;;24.30;58.60;;;;;;4955374;28;20435;-68
2022/08/08 09:24:20;;;;;;;3.83;3.43;;;24.30;58.50;;;;;;4933052;29;20946;-68
2022/08/08 09:27:11;;;;;;;4.07;3.60;;;24.40;58.60;;;;;;4920357;29;20415;-68
2022/08/08 09:29:50;;;;;;;3.50;3.20;;;24.40;58.60;;;;;;4945629;29;20502;-68
2022/08/08 09:32:30;;;;;;;3.87;3.57;;;24.40;58.50;;;;;;4955135;28;20439;-68
2022/08/08 09:35:00;;;;;;;5.20;3.47;;;24.40;58.50;;;;;;4955007;29;20474;-68
2022/08/08 09:37:40;;;;;;;4.00;3.63;;;24.50;58.50;;;;;;4939240;29;20917;-68
2022/08/08 09:40:14;;;;;;;4.63;3.70;;;24.50;58.40;;;;;;4939096;29;20439;-68
2022/08/08 09:42:49;;;;;;;3.50;3.20;;;24.60;58.30;;;;;;4939092;29;20454;-68
2022/08/08 09:45:25;;;;;;;4.13;3.73;;;24.60;58.30;;;;;;4955990;28;20521;-68
2022/08/08 09:48:02;;;;;;;3.80;3.50;;;24.60;58.20;;;;;;4956087;28;20402;-68
2022/08/08 09:50:34;;;;;;;3.90;3.60;;;24.60;58.20;;;;;;4955995;28;20403;-68
2022/08/08 09:53:05;;;;;;;6.33;3.70;;;24.70;58.10;;;;;;4938650;28;20530;-68
2022/08/08 09:55:33;;;;;;;4.20;3.80;;;24.70;58.10;;;;;;4936570;29;20820;-68
2022/08/08 09:58:08;;;;;;;4.27;3.87;;;24.70;58.00;;;;;;4935533;29;20459;-68
2022/08/08 10:00:37;;;;;;;3.77;3.47;;;24.80;58.00;;;;;;4936699;29;20435;-68
2022/08/08 10:03:04;;;;;;;4.23;3.30;;;24.80;57.90;;;;;;4944605;29;20450;-68
2022/08/08 10:05:37;;;;;;;3.73;3.33;;;24.90;57.90;;;;;;4954698;29;20474;-68
2022/08/08 10:08:04;;;;;;;4.53;3.70;;;24.90;57.80;;;;;;4919593;29;20483;-68
2022/08/08 10:10:36;;;;;;;3.50;3.20;;;24.90;57.70;;;;;;4936488;29;20404;-68
2022/08/08 10:13:21;;;;;;;4.10;3.50;;;25.00;57.70;;;;;;4938306;29;20466;-68
2022/08/08 10:15:51;;;;;;;4.73;3.70;;;25.00;57.60;;;;;;4955407;28;20521;-68
2022/08/08 10:18:40;;;;;;;4.83;3.40;;;25.00;57.50;;;;;;4938749;29;20439;-68
2022/08/08 10:21:11;;;;;;;4.07;3.67;;;25.00;57.50;;;;;;4938503;28;20470;-68
2022/08/08 10:23:44;;;;;;;4.40;4.00;;;25.10;57.50;;;;;;4949116;29;20758;-68
2022/08/08 10:26:18;;;;;;;4.63;4.23;;;25.10;57.40;;;;;;4924933;29;20940;-68
2022/08/08 10:29:11;;;;;;;4.33;3.93;;;25.20;57.50;;;;;;4954495;29;20452;-68
2022/08/08 10:34:25;;;;;;;3.57;3.27;;;25.20;57.40;;;;;;4955398;29;20406;-69
2022/08/08 10:36:53;;;;;;;4.27;3.47;;;25.30;57.30;;;;;;4954383;29;20402;-68
2022/08/08 10:39:45;;;;;;;3.53;3.23;;;25.30;57.20;;;;;;4954918;28;20506;-68
2022/08/08 10:42:17;;;;;;;4.73;3.43;;;25.30;57.20;;;;;;4954194;28;20447;-68
2022/08/08 10:44:44;;;;;;;6.60;3.50;;;25.40;57.10;;;;;;4938384;29;20943;-68
2022/08/08 10:47:13;;;;;;;4.20;3.60;;;25.40;57.10;;;;;;4938381;29;20416;-69
2022/08/08 10:49:41;;;;;;;3.63;3.33;;;25.40;57.00;;;;;;4938680;29;20446;-69
2022/08/08 10:52:09;;;;;;;4.17;3.80;;;25.50;57.00;;;;;;4955385;28;20442;-69
2022/08/08 10:54:40;;;;;;;3.80;3.50;;;25.50;57.00;;;;;;4955524;28;20439;-69
2022/08/08 10:57:08;;;;;;;3.80;3.50;;;25.60;56.90;;;;;;4970713;28;20451;-69
2022/08/08 10:59:34;;;;;;;5.17;3.70;;;25.60;56.90;;;;;;4954769;29;20435;-69
2022/08/08 11:02:03;;;;;;;3.80;3.50;;;25.60;56.80;;;;;;4955693;28;20967;-69
2022/08/08 11:04:33;;;;;;;4.50;4.10;;;25.70;56.80;;;;;;4970243;28;20419;-69
2022/08/08 11:07:04;;;;;;;4.50;3.73;;;25.70;56.80;;;;;;4955653;28;20403;-69
2022/08/08 11:09:34;;;;;;;4.20;3.90;;;25.70;56.70;;;;;;4970094;28;20399;-69
2022/08/08 11:12:03;;;;;;;9.00;3.60;;;25.80;56.60;;;;;;4955593;28;20497;-69
2022/08/08 11:14:32;;;;;;;4.77;3.90;;;25.80;56.60;;;;;;4955336;29;20510;-69
2022/08/08 11:16:59;;;;;;;3.77;3.47;;;25.90;56.60;;;;;;4938429;29;20419;-69
2022/08/08 11:19:28;;;;;;;4.10;3.10;;;25.90;56.50;;;;;;4955488;29;20406;-69
2022/08/08 11:21:56;;;;;;;4.23;3.90;;;25.90;56.50;;;;;;4955247;28;20447;-69
2022/08/08 11:24:27;;;;;;;4.13;3.83;;;25.90;56.50;;;;;;4955347;28;20482;-69
2022/08/08 11:27:01;;;;;;;3.80;3.50;;;26.00;56.50;;;;;;4954129;29;20435;-69
2022/08/08 11:29:29;;;;;;;5.67;3.43;;;26.00;56.40;;;;;;4954049;29;20431;-69
2022/08/08 11:31:59;;;;;;;3.80;3.50;;;26.10;56.40;;;;;;4955290;28;20443;-69
2022/08/08 11:34:31;;;;;;;4.77;3.97;;;26.10;56.30;;;;;;4954122;29;20896;-69
2022/08/08 11:37:00;;;;;;;5.53;3.70;;;26.10;56.80;;;;;;4938154;29;20521;-69
2022/08/08 11:39:27;;;;;;;5.23;3.70;;;26.10;56.20;;;;;;4955156;28;20482;-69
2022/08/08 11:41:53;;;;;;;3.70;3.40;;;26.20;56.10;;;;;;4953918;28;20442;-69
2022/08/08 11:44:23;;;;;;;4.07;3.77;;;26.20;56.10;;;;;;4954246;29;20427;-70
2022/08/08 11:46:56;;;;;;;4.67;3.77;;;26.20;56.00;;;;;;4953946;29;20446;-70
2022/08/08 11:49:24;;;;;;;3.93;3.63;;;26.30;56.10;;;;;;4955115;28;20402;-69
2022/08/08 11:51:54;;;;;;;6.33;4.00;;;26.30;56.70;;;;;;4956310;28;20445;-69
2022/08/08 11:54:33;;;;;;;3.90;3.50;;;26.30;56.00;;;;;;4958757;28;20403;-69
2022/08/08 11:57:17;;;;;;;7.73;3.70;;;26.40;56.10;;;;;;4942398;29;20925;-69
2022/08/08 12:00:06;;;;;;;3.77;3.47;;;26.40;56.10;;;;;;4957616;29;20422;-69
2022/08/08 12:02:56;;;;;;;4.30;3.73;;;26.40;56.00;;;;;;4942058;29;20479;-69
2022/08/08 12:05:31;;;;;;;3.63;3.33;;;26.40;56.00;;;;;;4941982;29;20904;-69
2022/08/08 12:08:00;;;;;;;5.23;4.00;;;26.50;56.10;;;;;;4957680;29;20533;-70
2022/08/08 12:10:30;;;;;;;3.97;3.57;;;26.50;56.00;;;;;;4958497;28;20403;-70
2022/08/08 12:13:09;;;;;;;3.93;3.50;;;26.50;56.00;;;;;;4958483;28;20443;-69
2022/08/08 12:15:37;;;;;;;4.00;3.27;;;26.60;56.00;;;;;;4957091;29;21074;-69
2022/08/08 12:18:23;;;;;;;4.43;3.60;;;26.60;56.00;;;;;;4957137;29;20396;-69
2022/08/08 12:20:54;;;;;;;4.20;3.80;;;26.70;56.00;;;;;;4941022;28;20457;-69
2022/08/08 12:23:32;;;;;;;4.20;3.80;;;26.70;55.90;;;;;;4958122;28;20406;-69
2022/08/08 12:26:11;;;;;;;4.20;3.80;;;26.70;55.90;;;;;;4957274;29;20490;-69
2022/08/08 12:28:37;;;;;;;5.07;3.87;;;26.70;55.90;;;;;;4958443;28;20437;-69
2022/08/08 12:31:08;;;;;;;6.80;3.80;;;26.80;55.90;;;;;;4958261;28;20407;-69
2022/08/08 12:33:39;;;;;;;4.80;4.13;;;26.80;55.80;;;;;;4958207;28;20466;-70
2022/08/08 12:36:13;;;;;;;4.07;3.50;;;26.80;55.80;;;;;;4956761;29;20876;-70
2022/08/08 12:38:50;;;;;;;4.00;3.70;;;26.90;55.70;;;;;;4957528;28;20509;-69
2022/08/08 12:41:21;;;;;;;5.47;3.60;;;26.90;55.60;;;;;;4940924;29;21051;-69
2022/08/08 12:43:49;;;;;;;5.90;4.17;;;26.90;55.70;;;;;;4957624;28;20411;-69
2022/08/08 12:46:22;;;;;;;6.17;3.97;;;27.00;55.70;;;;;;4956427;29;20860;-69
2022/08/08 12:48:57;;;;;;;4.00;3.70;;;27.00;55.60;;;;;;4956336;29;20461;-69
2022/08/08 12:51:23;;;;;;;5.40;4.00;;;27.00;55.60;;;;;;4956400;28;20823;-69
2022/08/08 12:53:58;;;;;;;3.67;3.37;;;27.00;55.70;;;;;;4956434;29;20815;-69
2022/08/08 12:56:37;;;;;;;4.40;4.10;;;27.10;55.70;;;;;;4956100;29;20540;-69
2022/08/08 12:59:13;;;;;;;4.20;3.80;;;27.10;55.60;;;;;;4957225;28;20462;-69
2022/08/08 13:01:40;;;;;;;3.87;3.33;;;27.10;55.50;;;;;;4956106;28;20987;-69
2022/08/08 13:04:31;;;;;;;5.07;2.90;;;27.20;55.60;;;;;;4971654;28;20446;-69
2022/08/08 13:07:04;;;;;;;5.40;3.37;;;27.20;55.50;;;;;;4956105;29;20863;-69
2022/08/08 13:09:34;;;;;;;4.07;3.70;;;27.20;55.40;;;;;;4957012;29;20494;-69
2022/08/08 13:12:09;;;;;;;4.50;3.93;;;27.20;55.50;;;;;;4956986;28;20839;-69
2022/08/08 13:14:42;;;;;;;4.60;4.20;;;27.30;55.40;;;;;;4957051;29;20422;-70
2022/08/08 13:17:13;;;;;;;4.67;3.77;;;27.30;55.40;;;;;;4956995;28;20407;-69
2022/08/08 13:19:41;;;;;;;4.60;4.17;;;27.30;55.40;;;;;;4956869;28;20552;-70
2022/08/08 13:22:15;;;;;;;3.83;3.53;;;27.40;55.40;;;;;;4955727;28;20446;-69
2022/08/08 13:24:46;;;;;;;4.50;3.73;;;27.40;55.30;;;;;;4955719;29;20419;-68
2022/08/08 13:27:14;;;;;;;3.77;3.43;;;27.40;55.30;;;;;;4956557;28;20414;-70
2022/08/08 13:29:58;;;;;;;4.30;4.00;;;27.50;55.10;;;;;;4955440;29;20399;-70
2022/08/08 13:32:26;;;;;;;3.57;3.20;;;27.50;55.10;;;;;;4971473;28;20940;-69
2022/08/08 13:34:57;;;;;;;3.73;3.43;;;27.50;55.00;;;;;;4956587;28;20449;-69
2022/08/08 13:37:30;;;;;;;4.30;3.90;;;27.50;55.00;;;;;;4955501;29;20450;-69
2022/08/08 13:40:02;;;;;;;5.07;3.73;;;27.60;54.90;;;;;;4939386;29;20554;-69